sensor_id;sensor_type;location;lat;lon;timestamp;pressure;altitude;pressure_sealevel;temperature;humidity
56876;BME280;42622;49.972;8.452;2023-04-27T00:00:44;100870.28;;;5.22;100.00
56876;BME280;42622;49.972;8.452;2023-04-27T00:03:10;100878.97;;;5.24;100.00
56876;BME280;42622;49.972;8.452;2023-04-27T00:05:37;100871.09;;;5.24;100.00
56876;BME280;42622;49.972;8.452;2023-04-27T00:08:06;100870.28;;;5.22;100.00
56876;BME280;42622;49.972;8.452;2023-04-27T00:10:32;100879.19;;;5.18;100.00
56876;BME280;42622;49.972;8.452;2023-04-27T00:12:59;100868.94;;;5.12;100.00
56876;BME280;42622;49.972;8.452;2023-04-27T00:15:26;100873.50;;;5.07;100.00
56876;BME280;42622;49.972;8.452;2023-04-27T00:17:53;100867.59;;;5.02;100.00
56876;BME280;42622;49.972;8.452;2023-04-27T00:20:19;100869.53;;;4.97;100.00
56876;BME280;42622;49.972;8.452;2023-04-27T00:22:46;100862.75;;;4.91;100.00
56876;BME280;42622;49.972;8.452;2023-04-27T00:25:11;100862.19;;;4.83;100.00
56876;BME280;42622;49.972;8.452;2023-04-27T00:27:37;100861.53;;;4.76;100.00
56876;BME280;42622;49.972;8.452;2023-04-27T00:30:04;100855.84;;;4.65;100.00
56876;BME280;42622;49.972;8.452;2023-04-27T00:32:30;100858.81;;;4.56;100.00
56876;BME280;42622;49.972;8.452;2023-04-27T00:34:56;100860.94;;;4.45;100.00
56876;BME280;42622;49.972;8.452;2023-04-27T00:37:21;100856.16;;;4.32;100.00
56876;BME280;42622;49.972;8.452;2023-04-27T00:39:47;100862.69;;;4.21;100.00
56876;BME280;42622;49.972;8.452;2023-04-27T00:42:13;100853.44;;;4.11;100.00
56876;BME280;42622;49.972;8.452;2023-04-27T00:44:42;100861.69;;;3.98;100.00
56876;BME280;42622;49.972;8.452;2023-04-27T00:47:10;100864.66;;;3.88;100.00
56876;BME280;42622;49.972;8.452;2023-04-27T00:49:37;100861.44;;;3.79;100.00
56876;BME280;42622;49.972;8.452;2023-04-27T00:52:03;100855.63;;;3.71;100.00
56876;BME280;42622;49.972;8.452;2023-04-27T00:54:30;100849.75;;;3.63;100.00
56876;BME280;42622;49.972;8.452;2023-04-27T00:56:56;100850.00;;;3.57;100.00
56876;BME280;42622;49.972;8.452;2023-04-27T00:59:22;100852.78;;;3.51;100.00
56876;BME280;42622;49.972;8.452;2023-04-27T01:01:48;100861.56;;;3.48;100.00
56876;BME280;42622;49.972;8.452;2023-04-27T01:04:15;100861.56;;;3.48;100.00
56876;BME280;42622;49.972;8.452;2023-04-27T01:06:42;100857.19;;;3.49;100.00
56876;BME280;42622;49.972;8.452;2023-04-27T01:09:08;100864.16;;;3.50;100.00
56876;BME280;42622;49.972;8.452;2023-04-27T01:11:35;100870.16;;;3.53;100.00
56876;BME280;42622;49.972;8.452;2023-04-27T01:14:05;100863.84;;;3.59;100.00
56876;BME280;42622;49.972;8.452;2023-04-27T01:16:33;100871.44;;;3.67;100.00
56876;BME280;42622;49.972;8.452;2023-04-27T01:19:00;100865.94;;;3.76;100.00
56876;BME280;42622;49.972;8.452;2023-04-27T01:21:26;100870.06;;;3.81;100.00
56876;BME280;42622;49.972;8.452;2023-04-27T01:23:52;100870.72;;;3.88;100.00
56876;BME280;42622;49.972;8.452;2023-04-27T01:26:19;100869.78;;;3.91;100.00
56876;BME280;42622;49.972;8.452;2023-04-27T01:28:45;100867.94;;;3.94;100.00
56876;BME280;42622;49.972;8.452;2023-04-27T01:31:11;100866.25;;;3.92;100.00
56876;BME280;42622;49.972;8.452;2023-04-27T01:33:39;100869.78;;;3.91;100.00
56876;BME280;42622;49.972;8.452;2023-04-27T01:36:06;100875.13;;;3.88;100.00
56876;BME280;42622;49.972;8.452;2023-04-27T01:38:33;100869.22;;;3.81;100.00
56876;BME280;42622;49.972;8.452;2023-04-27T01:41:03;100870.31;;;3.75;100.00
56876;BME280;42622;49.972;8.452;2023-04-27T01:43:30;100876.56;;;3.70;100.00
56876;BME280;42622;49.972;8.452;2023-04-27T01:46:05;100876.72;;;3.65;100.00
56876;BME280;42622;49.972;8.452;2023-04-27T01:48:33;100873.38;;;3.60;100.00
56876;BME280;42622;49.972;8.452;2023-04-27T01:50:59;100881.44;;;3.54;100.00
56876;BME280;42622;49.972;8.452;2023-04-27T01:53:25;100874.69;;;3.47;100.00
56876;BME280;42622;49.972;8.452;2023-04-27T01:55:50;100873.97;;;3.42;100.00
56876;BME280;42622;49.972;8.452;2023-04-27T01:58:16;100882.13;;;3.32;100.00
56876;BME280;42622;49.972;8.452;2023-04-27T02:00:42;100878.84;;;3.24;100.00
56876;BME280;42622;49.972;8.452;2023-04-27T02:03:07;100873.88;;;3.17;100.00
56876;BME280;42622;49.972;8.452;2023-04-27T02:05:34;100875.00;;;3.08;100.00
56876;BME280;42622;49.972;8.452;2023-04-27T02:08:00;100871.66;;;3.03;100.00
56876;BME280;42622;49.972;8.452;2023-04-27T02:10:26;100880.34;;;3.03;100.00
56876;BME280;42622;49.972;8.452;2023-04-27T02:12:51;100882.84;;;3.08;100.00
56876;BME280;42622;49.972;8.452;2023-04-27T02:15:17;100882.88;;;3.06;100.00
56876;BME280;42622;49.972;8.452;2023-04-27T02:17:43;100887.31;;;3.04;100.00
56876;BME280;42622;49.972;8.452;2023-04-27T02:20:10;100890.63;;;3.09;100.00
56876;BME280;42622;49.972;8.452;2023-04-27T02:22:41;100891.47;;;3.10;100.00
56876;BME280;42622;49.972;8.452;2023-04-27T02:25:11;100893.31;;;3.08;100.00
56876;BME280;42622;49.972;8.452;2023-04-27T02:27:40;100889.88;;;3.06;100.00
56876;BME280;42622;49.972;8.452;2023-04-27T02:30:09;100889.00;;;3.05;100.00
56876;BME280;42622;49.972;8.452;2023-04-27T02:32:38;100892.31;;;3.12;100.00
56876;BME280;42622;49.972;8.452;2023-04-27T02:35:06;100896.44;;;3.19;100.00
56876;BME280;42622;49.972;8.452;2023-04-27T02:37:34;100900.66;;;3.23;100.00
56876;BME280;42622;49.972;8.452;2023-04-27T02:39:59;100898.06;;;3.23;100.00
56876;BME280;42622;49.972;8.452;2023-04-27T02:42:25;100904.91;;;3.27;100.00
56876;BME280;42622;49.972;8.452;2023-04-27T02:44:51;100906.50;;;3.31;100.00
56876;BME280;42622;49.972;8.452;2023-04-27T02:47:17;100909.19;;;3.30;100.00
56876;BME280;42622;49.972;8.452;2023-04-27T02:49:44;100905.81;;;3.26;100.00
56876;BME280;42622;49.972;8.452;2023-04-27T02:52:10;100896.28;;;3.25;100.00
56876;BME280;42622;49.972;8.452;2023-04-27T02:54:35;100899.84;;;3.21;100.00
56876;BME280;42622;49.972;8.452;2023-04-27T02:57:01;100886.09;;;3.16;100.00
56876;BME280;42622;49.972;8.452;2023-04-27T02:59:27;100895.81;;;3.11;100.00
56876;BME280;42622;49.972;8.452;2023-04-27T03:01:53;100884.63;;;3.06;100.00
56876;BME280;42622;49.972;8.452;2023-04-27T03:04:18;100888.00;;;3.11;100.00
56876;BME280;42622;49.972;8.452;2023-04-27T03:06:44;100887.78;;;3.17;100.00
56876;BME280;42622;49.972;8.452;2023-04-27T03:09:10;100888.63;;;3.18;100.00
56876;BME280;42622;49.972;8.452;2023-04-27T03:11:37;100896.63;;;3.13;100.00
56876;BME280;42622;49.972;8.452;2023-04-27T03:14:04;100888.00;;;3.11;100.00
56876;BME280;42622;49.972;8.452;2023-04-27T03:16:31;100892.44;;;3.07;100.00
56876;BME280;42622;49.972;8.452;2023-04-27T03:18:58;100886.44;;;3.04;100.00
56876;BME280;42622;49.972;8.452;2023-04-27T03:21:24;100890.03;;;3.00;100.00
56876;BME280;42622;49.972;8.452;2023-04-27T03:23:51;100885.81;;;2.96;100.00
56876;BME280;42622;49.972;8.452;2023-04-27T03:26:17;100896.31;;;2.94;100.00
56876;BME280;42622;49.972;8.452;2023-04-27T03:28:43;100890.25;;;2.92;100.00
56876;BME280;42622;49.972;8.452;2023-04-27T03:31:12;100891.09;;;2.93;100.00
56876;BME280;42622;49.972;8.452;2023-04-27T03:33:40;100890.31;;;2.91;100.00
56876;BME280;42622;49.972;8.452;2023-04-27T03:36:07;100888.59;;;2.90;100.00
56876;BME280;42622;49.972;8.452;2023-04-27T03:38:35;100883.41;;;2.88;100.00
56876;BME280;42622;49.972;8.452;2023-04-27T03:41:01;100872.25;;;2.83;100.00
56876;BME280;42622;49.972;8.452;2023-04-27T03:43:28;100870.75;;;2.74;100.00
56876;BME280;42622;49.972;8.452;2023-04-27T03:45:54;100870.13;;;2.66;100.00
56876;BME280;42622;49.972;8.452;2023-04-27T03:48:20;100873.72;;;2.62;100.00
56876;BME280;42622;49.972;8.452;2023-04-27T03:50:47;100875.59;;;2.57;100.00
56876;BME280;42622;49.972;8.452;2023-04-27T03:53:14;100880.81;;;2.57;100.00
56876;BME280;42622;49.972;8.452;2023-04-27T03:55:43;100885.25;;;2.53;100.00
56876;BME280;42622;49.972;8.452;2023-04-27T03:58:09;100884.41;;;2.53;100.00
56876;BME280;42622;49.972;8.452;2023-04-27T04:00:39;100886.94;;;2.56;100.00
56876;BME280;42622;49.972;8.452;2023-04-27T04:03:06;100884.16;;;2.62;100.00
56876;BME280;42622;49.972;8.452;2023-04-27T04:05:32;100887.53;;;2.66;100.00
56876;BME280;42622;49.972;8.452;2023-04-27T04:07:58;100894.34;;;2.71;100.00
56876;BME280;42622;49.972;8.452;2023-04-27T04:10:24;100893.34;;;2.75;100.00
56876;BME280;42622;49.972;8.452;2023-04-27T04:12:51;100895.78;;;2.81;100.00
56876;BME280;42622;49.972;8.452;2023-04-27T04:15:18;100902.53;;;2.88;100.00
56876;BME280;42622;49.972;8.452;2023-04-27T04:17:45;100891.09;;;2.94;100.00
56876;BME280;42622;49.972;8.452;2023-04-27T04:20:12;100897.00;;;3.01;100.00
56876;BME280;42622;49.972;8.452;2023-04-27T04:22:39;100895.94;;;3.06;100.00
56876;BME280;42622;49.972;8.452;2023-04-27T04:25:05;100894.00;;;3.13;100.00
56876;BME280;42622;49.972;8.452;2023-04-27T04:27:32;100901.66;;;3.19;100.00
56876;BME280;42622;49.972;8.452;2023-04-27T04:29:58;100902.38;;;3.24;100.00
56876;BME280;42622;49.972;8.452;2023-04-27T04:32:26;100899.59;;;3.30;100.00
56876;BME280;42622;49.972;8.452;2023-04-27T04:34:56;100899.34;;;3.38;100.00
56876;BME280;42622;49.972;8.452;2023-04-27T04:37:23;100892.28;;;3.42;100.00
56876;BME280;42622;49.972;8.452;2023-04-27T04:39:49;100900.88;;;3.45;100.00
56876;BME280;42622;49.972;8.452;2023-04-27T04:42:14;100897.31;;;3.48;100.00
56876;BME280;42622;49.972;8.452;2023-04-27T04:44:40;100906.81;;;3.50;100.00
56876;BME280;42622;49.972;8.452;2023-04-27T04:47:06;100906.81;;;3.50;100.00
56876;BME280;42622;49.972;8.452;2023-04-27T04:49:34;100901.59;;;3.50;100.00
56876;BME280;42622;49.972;8.452;2023-04-27T04:52:00;100911.19;;;3.50;100.00
56876;BME280;42622;49.972;8.452;2023-04-27T04:54:28;100907.78;;;3.48;100.00
56876;BME280;42622;49.972;8.452;2023-04-27T04:56:55;100912.16;;;3.47;100.00
56876;BME280;42622;49.972;8.452;2023-04-27T04:59:23;100914.75;;;3.47;100.00
56876;BME280;42622;49.972;8.452;2023-04-27T05:01:49;100921.75;;;3.47;100.00
56876;BME280;42622;49.972;8.452;2023-04-27T05:04:15;100914.69;;;3.49;100.00
56876;BME280;42622;49.972;8.452;2023-04-27T05:06:43;100922.41;;;3.53;100.00
56876;BME280;42622;49.972;8.452;2023-04-27T05:09:09;100917.81;;;3.60;100.00
56876;BME280;42622;49.972;8.452;2023-04-27T05:11:35;100918.41;;;3.70;100.00
56876;BME280;42622;49.972;8.452;2023-04-27T05:14:01;100925.00;;;3.81;100.00
56876;BME280;42622;49.972;8.452;2023-04-27T05:16:26;100918.47;;;3.95;100.00
56876;BME280;42622;49.972;8.452;2023-04-27T05:18:52;100931.94;;;4.09;100.00
56876;BME280;42622;49.972;8.452;2023-04-27T05:21:19;100928.84;;;4.24;100.00
56876;BME280;42622;49.972;8.452;2023-04-27T05:23:47;100933.66;;;4.37;100.00
56876;BME280;42622;49.972;8.452;2023-04-27T05:26:17;100929.63;;;4.53;100.00
56876;BME280;42622;49.972;8.452;2023-04-27T05:28:43;100935.91;;;4.72;100.00
56876;BME280;42622;49.972;8.452;2023-04-27T05:31:11;100937.84;;;4.91;100.00
56876;BME280;42622;49.972;8.452;2023-04-27T05:33:36;100940.81;;;5.05;100.00
56876;BME280;42622;49.972;8.452;2023-04-27T05:36:02;100938.50;;;5.21;100.00
56876;BME280;42622;49.972;8.452;2023-04-27T05:38:28;100940.66;;;5.33;100.00
56876;BME280;42622;49.972;8.452;2023-04-27T05:40:58;100934.97;;;5.45;100.00
56876;BME280;42622;49.972;8.452;2023-04-27T05:43:24;100947.53;;;5.59;100.00
56876;BME280;42622;49.972;8.452;2023-04-27T05:45:52;100950.47;;;5.73;100.00
56876;BME280;42622;49.972;8.452;2023-04-27T05:48:18;100954.38;;;5.85;100.00
56876;BME280;42622;49.972;8.452;2023-04-27T05:50:44;100943.47;;;5.96;100.00
56876;BME280;42622;49.972;8.452;2023-04-27T05:53:10;100936.94;;;6.06;100.00
56876;BME280;42622;49.972;8.452;2023-04-27T05:55:36;100947.94;;;6.16;100.00
56876;BME280;42622;49.972;8.452;2023-04-27T05:58:03;100948.25;;;6.29;100.00
56876;BME280;42622;49.972;8.452;2023-04-27T06:00:29;100951.16;;;6.43;100.00
56876;BME280;42622;49.972;8.452;2023-04-27T06:02:54;100944.13;;;6.64;100.00
56876;BME280;42622;49.972;8.452;2023-04-27T06:05:21;100953.00;;;6.82;100.00
56876;BME280;42622;49.972;8.452;2023-04-27T06:07:47;100958.22;;;7.02;100.00
56876;BME280;42622;49.972;8.452;2023-04-27T06:10:15;100960.81;;;7.23;100.00
56876;BME280;42622;49.972;8.452;2023-04-27T06:12:41;100966.03;;;7.43;100.00
56876;BME280;42622;49.972;8.452;2023-04-27T06:15:07;100968.59;;;7.63;100.00
56876;BME280;42622;49.972;8.452;2023-04-27T06:17:37;100959.69;;;7.85;100.00
56876;BME280;42622;49.972;8.452;2023-04-27T06:20:05;100966.38;;;8.09;100.00
56876;BME280;42622;49.972;8.452;2023-04-27T06:22:32;100964.88;;;8.40;100.00
56876;BME280;42622;49.972;8.452;2023-04-27T06:24:58;100967.63;;;8.73;100.00
56876;BME280;42622;49.972;8.452;2023-04-27T06:27:24;100968.22;;;9.12;100.00
56876;BME280;42622;49.972;8.452;2023-04-27T06:29:50;100971.97;;;9.88;100.00
56876;BME280;42622;49.972;8.452;2023-04-27T06:32:16;100964.31;;;10.90;98.42
56876;BME280;42622;49.972;8.452;2023-04-27T06:34:42;100965.16;;;11.05;90.47
56876;BME280;42622;49.972;8.452;2023-04-27T06:37:07;100967.28;;;10.69;88.69
56876;BME280;42622;49.972;8.452;2023-04-27T06:39:33;100979.66;;;10.39;89.25
56876;BME280;42622;49.972;8.452;2023-04-27T06:41:59;100982.09;;;10.12;88.44
56876;BME280;42622;49.972;8.452;2023-04-27T06:44:25;100983.03;;;9.95;87.69
56876;BME280;42622;49.972;8.452;2023-04-27T06:46:51;100983.19;;;9.92;88.33
56876;BME280;42622;49.972;8.452;2023-04-27T06:49:16;100981.69;;;9.88;87.52
56876;BME280;42622;49.972;8.452;2023-04-27T06:51:42;100979.72;;;9.91;87.10
56876;BME280;42622;49.972;8.452;2023-04-27T06:54:08;100975.44;;;10.04;85.96
56876;BME280;42622;49.972;8.452;2023-04-27T06:56:34;100977.81;;;10.85;87.61
56876;BME280;42622;49.972;8.452;2023-04-27T06:59:00;100981.34;;;11.99;83.77
56876;BME280;42622;49.972;8.452;2023-04-27T07:01:25;100977.94;;;12.76;77.85
56876;BME280;42622;49.972;8.452;2023-04-27T07:03:51;100974.13;;;13.19;70.76
56876;BME280;42622;49.972;8.452;2023-04-27T07:06:17;100969.66;;;13.45;68.04
56876;BME280;42622;49.972;8.452;2023-04-27T07:08:43;100978.53;;;13.69;64.92
56876;BME280;42622;49.972;8.452;2023-04-27T07:11:08;100982.50;;;13.87;62.09
56876;BME280;42622;49.972;8.452;2023-04-27T07:13:34;100981.47;;;14.14;59.59
56876;BME280;42622;49.972;8.452;2023-04-27T07:16:00;100980.88;;;14.46;59.70
56876;BME280;42622;49.972;8.452;2023-04-27T07:18:26;100974.19;;;14.64;55.95
56876;BME280;42622;49.972;8.452;2023-04-27T07:20:55;100980.53;;;14.86;53.62
56876;BME280;42622;49.972;8.452;2023-04-27T07:23:22;100971.84;;;15.06;53.78
56876;BME280;42622;49.972;8.452;2023-04-27T07:25:50;100977.91;;;15.30;53.15
56876;BME280;42622;49.972;8.452;2023-04-27T07:28:16;100975.00;;;15.56;52.78
56876;BME280;42622;49.972;8.452;2023-04-27T07:30:42;100981.31;;;15.66;52.51
56876;BME280;42622;49.972;8.452;2023-04-27T07:33:08;100970.41;;;15.69;51.38
56876;BME280;42622;49.972;8.452;2023-04-27T07:35:35;100967.47;;;15.61;51.39
56876;BME280;42622;49.972;8.452;2023-04-27T07:38:02;100974.03;;;15.46;51.01
56876;BME280;42622;49.972;8.452;2023-04-27T07:40:29;100965.78;;;15.15;50.51
56876;BME280;42622;49.972;8.452;2023-04-27T07:42:57;100962.13;;;15.05;50.01
56876;BME280;42622;49.972;8.452;2023-04-27T07:45:23;100964.78;;;14.82;49.78
56876;BME280;42622;49.972;8.452;2023-04-27T07:47:57;100966.72;;;14.45;48.89
56876;BME280;42622;49.972;8.452;2023-04-27T07:50:27;100972.50;;;14.39;50.14
56876;BME280;42622;49.972;8.452;2023-04-27T07:52:55;100964.16;;;14.44;50.64
56876;BME280;42622;49.972;8.452;2023-04-27T07:55:24;100962.75;;;14.51;49.83
56876;BME280;42622;49.972;8.452;2023-04-27T07:57:52;100960.31;;;14.48;50.31
56876;BME280;42622;49.972;8.452;2023-04-27T08:00:20;100968.19;;;14.49;49.42
56876;BME280;42622;49.972;8.452;2023-04-27T08:02:46;100965.50;;;14.38;48.07
56876;BME280;42622;49.972;8.452;2023-04-27T08:05:12;100976.28;;;14.24;48.50
56876;BME280;42622;49.972;8.452;2023-04-27T08:07:39;100970.53;;;14.06;48.50
56876;BME280;42622;49.972;8.452;2023-04-27T08:10:06;100967.59;;;13.98;48.86
56876;BME280;42622;49.972;8.452;2023-04-27T08:12:33;100958.59;;;13.87;49.17
56876;BME280;42622;49.972;8.452;2023-04-27T08:14:59;100955.84;;;13.89;49.36
56876;BME280;42622;49.972;8.452;2023-04-27T08:17:25;100960.19;;;14.14;49.78
56876;BME280;42622;49.972;8.452;2023-04-27T08:19:52;100954.47;;;14.67;49.92
56876;BME280;42622;49.972;8.452;2023-04-27T08:22:18;100955.78;;;14.61;47.99
56876;BME280;42622;49.972;8.452;2023-04-27T08:24:44;100955.81;;;14.83;48.46
56876;BME280;42622;49.972;8.452;2023-04-27T08:27:10;100959.75;;;15.02;46.86
56876;BME280;42622;49.972;8.452;2023-04-27T08:29:35;100951.63;;;15.15;45.74
56876;BME280;42622;49.972;8.452;2023-04-27T08:32:03;100952.97;;;15.20;46.07
56876;BME280;42622;49.972;8.452;2023-04-27T08:34:30;100953.31;;;15.38;45.45
56876;BME280;42622;49.972;8.452;2023-04-27T08:36:56;100953.09;;;15.41;46.07
56876;BME280;42622;49.972;8.452;2023-04-27T08:39:23;100941.56;;;15.52;45.05
56876;BME280;42622;49.972;8.452;2023-04-27T08:41:49;100947.25;;;15.59;45.00
56876;BME280;42622;49.972;8.452;2023-04-27T08:44:18;100946.88;;;15.74;44.68
56876;BME280;42622;49.972;8.452;2023-04-27T08:46:43;100951.19;;;15.98;44.93
56876;BME280;42622;49.972;8.452;2023-04-27T08:49:09;100947.59;;;16.20;45.34
56876;BME280;42622;49.972;8.452;2023-04-27T08:51:35;100945.38;;;16.25;44.96
56876;BME280;42622;49.972;8.452;2023-04-27T08:54:01;100958.00;;;16.23;43.78
56876;BME280;42622;49.972;8.452;2023-04-27T08:56:29;100952.88;;;16.52;44.26
56876;BME280;42622;49.972;8.452;2023-04-27T08:58:56;100953.03;;;16.71;44.24
56876;BME280;42622;49.972;8.452;2023-04-27T09:01:24;100957.47;;;16.61;43.60
56876;BME280;42622;49.972;8.452;2023-04-27T09:03:57;100950.94;;;16.54;43.58
56876;BME280;42622;49.972;8.452;2023-04-27T09:06:33;100961.56;;;16.44;43.50
56876;BME280;42622;49.972;8.452;2023-04-27T09:09:00;100953.63;;;16.54;43.37
56876;BME280;42622;49.972;8.452;2023-04-27T09:11:35;100953.81;;;16.62;44.19
56876;BME280;42622;49.972;8.452;2023-04-27T09:14:18;100955.16;;;16.36;43.19
56876;BME280;42622;49.972;8.452;2023-04-27T09:16:45;100942.34;;;16.30;43.41
56876;BME280;42622;49.972;8.452;2023-04-27T09:19:27;100938.19;;;16.37;43.66
56876;BME280;42622;49.972;8.452;2023-04-27T09:22:09;100935.63;;;16.35;44.38
56876;BME280;42622;49.972;8.452;2023-04-27T09:24:36;100941.03;;;16.45;44.65
56876;BME280;42622;49.972;8.452;2023-04-27T09:27:02;100939.09;;;16.47;44.50
56876;BME280;42622;49.972;8.452;2023-04-27T09:29:37;100942.78;;;16.35;44.57
56876;BME280;42622;49.972;8.452;2023-04-27T09:32:18;100936.75;;;16.33;45.31
56876;BME280;42622;49.972;8.452;2023-04-27T09:34:47;100931.28;;;16.55;45.60
56876;BME280;42622;49.972;8.452;2023-04-27T09:37:13;100929.53;;;16.65;44.24
56876;BME280;42622;49.972;8.452;2023-04-27T09:39:41;100928.03;;;16.72;44.37
56876;BME280;42622;49.972;8.452;2023-04-27T09:42:07;100929.56;;;16.96;44.11
56876;BME280;42622;49.972;8.452;2023-04-27T09:44:34;100928.94;;;17.13;44.32
56876;BME280;42622;49.972;8.452;2023-04-27T09:47:00;100923.34;;;17.16;44.14
56876;BME280;42622;49.972;8.452;2023-04-27T09:49:27;100921.88;;;17.33;44.00
56876;BME280;42622;49.972;8.452;2023-04-27T09:51:56;100926.13;;;17.55;43.66
56876;BME280;42622;49.972;8.452;2023-04-27T09:54:29;100925.34;;;17.74;43.02
56876;BME280;42622;49.972;8.452;2023-04-27T09:57:36;100912.72;;;17.86;42.87
56876;BME280;42622;49.972;8.452;2023-04-27T10:00:22;100919.34;;;17.82;42.79
56876;BME280;42622;49.972;8.452;2023-04-27T10:09:04;100915.19;;;17.58;41.62
56876;BME280;42622;49.972;8.452;2023-04-27T10:11:40;100910.25;;;17.13;42.03
56876;BME280;42622;49.972;8.452;2023-04-27T10:14:18;100913.44;;;17.38;42.08
56876;BME280;42622;49.972;8.452;2023-04-27T10:16:54;100905.34;;;17.68;41.94
56876;BME280;42622;49.972;8.452;2023-04-27T10:19:24;100906.81;;;17.92;42.46
56876;BME280;42622;49.972;8.452;2023-04-27T10:22:00;100910.75;;;18.07;42.16
56876;BME280;42622;49.972;8.452;2023-04-27T10:24:40;100909.91;;;17.97;42.54
56876;BME280;42622;49.972;8.452;2023-04-27T10:27:10;100915.06;;;17.60;41.33
56876;BME280;42622;49.972;8.452;2023-04-27T10:29:42;100900.25;;;17.46;40.84
56876;BME280;42622;49.972;8.452;2023-04-27T10:32:24;100896.69;;;17.36;41.06
56876;BME280;42622;49.972;8.452;2023-04-27T10:35:03;100889.06;;;17.31;40.14
56876;BME280;42622;49.972;8.452;2023-04-27T10:37:41;100893.94;;;17.16;40.56
56876;BME280;42622;49.972;8.452;2023-04-27T10:40:10;100890.47;;;17.26;39.96
56876;BME280;42622;49.972;8.452;2023-04-27T10:42:40;100895.47;;;17.59;39.81
56876;BME280;42622;49.972;8.452;2023-04-27T10:45:07;100892.03;;;17.78;39.40
56876;BME280;42622;49.972;8.452;2023-04-27T10:47:42;100898.59;;;17.64;38.79
56876;BME280;42622;49.972;8.452;2023-04-27T10:50:14;100901.00;;;17.67;39.97
56876;BME280;42622;49.972;8.452;2023-04-27T10:52:42;100888.75;;;17.65;38.90
56876;BME280;42622;49.972;8.452;2023-04-27T10:55:21;100887.03;;;17.54;39.31
56876;BME280;42622;49.972;8.452;2023-04-27T10:57:50;100885.16;;;17.95;39.72
56876;BME280;42622;49.972;8.452;2023-04-27T11:00:29;100876.38;;;18.42;39.97
56876;BME280;42622;49.972;8.452;2023-04-27T11:03:10;100886.47;;;18.77;39.92
56876;BME280;42622;49.972;8.452;2023-04-27T11:05:39;100885.69;;;18.94;38.71
56876;BME280;42622;49.972;8.452;2023-04-27T11:08:17;100876.03;;;18.74;38.44
56876;BME280;42622;49.972;8.452;2023-04-27T11:10:47;100880.44;;;18.46;38.25
56876;BME280;42622;49.972;8.452;2023-04-27T11:13:19;100879.63;;;18.26;38.37
56876;BME280;42622;49.972;8.452;2023-04-27T11:15:55;100870.03;;;18.33;38.50
56876;BME280;42622;49.972;8.452;2023-04-27T11:18:28;100868.75;;;18.47;38.10
56876;BME280;42622;49.972;8.452;2023-04-27T11:21:17;100865.88;;;18.68;38.63
56876;BME280;42622;49.972;8.452;2023-04-27T11:23:49;100865.03;;;18.67;37.96
56876;BME280;42622;49.972;8.452;2023-04-27T11:26:21;100872.09;;;18.58;37.63
56876;BME280;42622;49.972;8.452;2023-04-27T11:29:00;100865.63;;;18.51;36.72
56876;BME280;42622;49.972;8.452;2023-04-27T11:31:48;100874.16;;;18.27;35.95
56876;BME280;42622;49.972;8.452;2023-04-27T11:34:19;100864.69;;;18.23;35.73
56876;BME280;42622;49.972;8.452;2023-04-27T11:37:01;100850.44;;;18.42;37.06
56876;BME280;42622;49.972;8.452;2023-04-27T11:39:37;100858.59;;;18.50;37.63
56876;BME280;42622;49.972;8.452;2023-04-27T11:42:24;100862.53;;;18.56;37.35
56876;BME280;42622;49.972;8.452;2023-04-27T11:45:01;100856.78;;;18.41;37.83
56876;BME280;42622;49.972;8.452;2023-04-27T11:47:30;100863.72;;;18.24;37.26
56876;BME280;42622;49.972;8.452;2023-04-27T11:50:01;100862.31;;;18.10;36.50
56876;BME280;42622;49.972;8.452;2023-04-27T11:52:37;100854.88;;;17.85;36.41
56876;BME280;42622;49.972;8.452;2023-04-27T11:55:05;100847.13;;;18.01;36.27
56876;BME280;42622;49.972;8.452;2023-04-27T11:57:40;100842.88;;;18.28;36.77
56876;BME280;42622;49.972;8.452;2023-04-27T12:00:07;100848.97;;;18.67;36.91
56876;BME280;42622;49.972;8.452;2023-04-27T12:02:36;100845.56;;;18.84;36.74
56876;BME280;42622;49.972;8.452;2023-04-27T12:05:03;100846.69;;;18.82;36.31
56876;BME280;42622;49.972;8.452;2023-04-27T12:07:30;100838.09;;;18.69;36.25
56876;BME280;42622;49.972;8.452;2023-04-27T12:09:55;100840.78;;;18.78;36.11
56876;BME280;42622;49.972;8.452;2023-04-27T12:12:22;100834.47;;;18.97;35.90
56876;BME280;42622;49.972;8.452;2023-04-27T12:14:49;100831.00;;;19.15;36.01
56876;BME280;42622;49.972;8.452;2023-04-27T12:17:17;100825.06;;;19.21;35.56
56876;BME280;42622;49.972;8.452;2023-04-27T12:19:43;100832.59;;;19.35;35.85
56876;BME280;42622;49.972;8.452;2023-04-27T12:22:09;100827.06;;;19.19;35.59
56876;BME280;42622;49.972;8.452;2023-04-27T12:24:37;100828.06;;;19.08;36.16
56876;BME280;42622;49.972;8.452;2023-04-27T12:27:03;100826.56;;;19.05;36.64
56876;BME280;42622;49.972;8.452;2023-04-27T12:29:29;100820.00;;;19.18;36.29
56876;BME280;42622;49.972;8.452;2023-04-27T12:31:58;100812.94;;;19.17;36.04
56876;BME280;42622;49.972;8.452;2023-04-27T12:34:24;100812.69;;;18.82;34.83
56876;BME280;42622;49.972;8.452;2023-04-27T12:36:50;100809.75;;;18.76;35.74
56876;BME280;42622;49.972;8.452;2023-04-27T12:39:20;100813.16;;;18.78;35.65
56876;BME280;42622;49.972;8.452;2023-04-27T12:41:49;100814.41;;;18.83;35.91
56876;BME280;42622;49.972;8.452;2023-04-27T12:44:18;100807.47;;;18.91;36.87
56876;BME280;42622;49.972;8.452;2023-04-27T12:46:45;100810.47;;;19.05;37.05
56876;BME280;42622;49.972;8.452;2023-04-27T12:49:13;100798.88;;;19.32;37.41
56876;BME280;42622;49.972;8.452;2023-04-27T12:51:39;100802.19;;;19.62;37.90
56876;BME280;42622;49.972;8.452;2023-04-27T12:54:09;100793.03;;;19.65;37.09
56876;BME280;42622;49.972;8.452;2023-04-27T12:56:36;100798.81;;;19.60;36.87
56876;BME280;42622;49.972;8.452;2023-04-27T12:59:02;100803.25;;;19.33;36.55
56876;BME280;42622;49.972;8.452;2023-04-27T13:01:28;100798.25;;;19.21;36.47